Welcome to our Virtual Airline
Sign-in:

Flight MFC30101

  • Submitted By: James Smith
  • Departure Airport: Lloyd R. Roundtree Seaplane Facility (63A)
  • Arrival Airport: Kake SPB (KAE)
  • Aircraft: G21 (N015MM-BL)
  • Flight Time: 00.28.28
  • Date Submitted: 2018/07/13
  • Route: STOP AT PORTAGE BAY DOCK (TF11)
  • Status: Accepted
Flight Details
Gross Revenue:
(5 load / $ 50.00 per unit
$ 250.00
Fuel Cost:
(39.0089 fuel used @ 5.1 / unit)
$ 198.95

Additional Log Information:

View Log

FS[13:29] ----- Flight Opened -----
FS[13:29] Cigar Box - 1.1.4.0
FS[13:29] FS: Prepar3D V4
FS[13:29] FSUIPC: v5.131
FS[13:29] Flight Number: MFC30101
FS[13:29] FS Aircraft: DHC2 Beaver N001MM RTMM Floats
FS[13:29] FS Model: DHC2
FS[13:29] FS Type: Silent
FS[13:29] Departure: 63A
FS[13:29] Arrival: KAE
FS[13:29] Flight Level: 2500
FS[13:29] Flight Type: H
FS[13:29] Passengers: 5
FS[13:29] FOB: 315 lbs
FS[13:29] Gate: n/a
FS[13:29] NOTE: Parking Brake Ignored
FS[13:29] Crash Detection: Disabled
FS[13:29] Engines: 1 Piston
FS[13:29] NOTE: Boarding has started
FS[13:29] Flaps: Position 4
FS[13:29] Light Data: Navigation ON
FS[13:29] Light Data: Beacon ON
FS[13:29] Main Door Closed
FS[13:30] COM1: 122.50
FS[13:30] COM2: 127.80
FS[13:30] Transponder: 1200
FS[13:30] NAV1: 113.70
FS[13:30] NAV2: 110.60
FS[13:30] ADF1: 284.0
FS[13:30] ADF2: 240.0
FS[13:30] Navigation Mode: NAV
FS[13:33] Parking Brake: Engaged
FS[13:33] Flaps: Position 0
FS[13:33] Light Data: Navigation OFF
FS[13:33] Light Data: Beacon OFF
FS[13:33] Light Data: Navigation ON
FS[13:33] Light Data: Beacon ON
FS[13:33] Engine 1: Started
FS[13:33] Parking Brake: Released
FS[13:33] NOTE: Taxi started
FS[13:34] Flaps: Position 1
FS[13:34] Flaps: Position 3
FS[13:34] Flaps: Position 4
FS[13:34] Flaps: Position 5
FS[13:34] NOTE: ----- TAKE OFF -----
FS[13:34] GS: 66 knots
FS[13:34] TAS: 66 knots
FS[13:34] IAS: 59 knots
FS[13:34] VS: 98 fpm
FS[13:34] FOB: 313 lbs
FS[13:34] Heading: 353°
FS[13:34] Pitch: 10°
FS[13:34] Bank: 0°
FS[13:34] Aircraft Weight: 4793.51 lbs
FS[13:34] Nearest Airport: 63A
FS[13:34] Distance: 0.29 miles
FS[13:34] Runway: ???
FS[13:34] Ground Surface: Water
FS[13:34] Ground Condition: Normal
FS[13:34] NOTE: Weather Report
FS[13:34] Wind Heading: 337°
FS[13:34] Wind Speed: 0 knots
FS[13:34] OAT: 21° C
FS[13:34] TAT: 22° C
FS[13:34] Precipitation: None
FS[13:34] Dew Point: 11° C
FS[13:34] Visibility: 62 miles
FS[13:34] METAR: No METAR available for 63A.
FS[13:34] NOTE: Climb started
FS[13:35] View Mode: Virtual Cockpit
FS[13:35] Flaps: Position 4
FS[13:35] GS: 60 knots
FS[13:35] TAS: 61 knots
FS[13:35] IAS: 53 knots
FS[13:35] VS: 1104 fpm
FS[13:35] Flaps: Position 3
FS[13:35] GS: 60 knots
FS[13:35] TAS: 61 knots
FS[13:35] IAS: 53 knots
FS[13:35] VS: 910 fpm
FS[13:35] Flaps: Position 2
FS[13:35] GS: 68 knots
FS[13:35] TAS: 68 knots
FS[13:35] IAS: 60 knots
FS[13:35] VS: 236 fpm
FS[13:35] Flaps: Position 1
FS[13:35] GS: 79 knots
FS[13:35] TAS: 80 knots
FS[13:35] IAS: 73 knots
FS[13:35] VS: 713 fpm
FS[13:35] Flaps: Position 0
FS[13:35] GS: 79 knots
FS[13:35] TAS: 81 knots
FS[13:35] IAS: 74 knots
FS[13:35] VS: 900 fpm
FS[13:36] NOTE: TOC reached
FS[13:36] NOTE: Cruise started
FS[13:36] GS: 114 knots
FS[13:36] TAS: 115 knots
FS[13:36] IAS: 107 knots
FS[13:36] VS: 193 fpm
FS[13:36] FOB: 302 lbs
FS[13:36] Heading: 282°
FS[13:36] Pitch: 0°
FS[13:36] Bank: 1°
FS[13:36] Aircraft Weight: 4782.15 lbs
FS[13:37] NOTE: TOD reached
FS[13:37] NOTE: Descent started
FS[13:37] GS: 132 knots
FS[13:37] TAS: 131 knots
FS[13:37] IAS: 124 knots
FS[13:37] VS: -403 fpm
FS[13:37] FOB: 298 lbs
FS[13:37] Heading: 274°
FS[13:37] Pitch: 2°
FS[13:37] Bank: 0°
FS[13:37] Aircraft Weight: 4778.65 lbs
FS[13:37] NOTE: On approach
FS[13:40] FS: Paused
FS[13:40] FS: Unpaused
FS[13:42] Flaps: Position 1
FS[13:42] GS: 101 knots
FS[13:42] TAS: 103 knots
FS[13:42] IAS: 97 knots
FS[13:42] VS: 116 fpm
FS[13:42] Flaps: Position 2
FS[13:42] GS: 99 knots
FS[13:42] TAS: 101 knots
FS[13:42] IAS: 95 knots
FS[13:42] VS: 89 fpm
FS[13:42] Flaps: Position 3
FS[13:42] GS: 97 knots
FS[13:42] TAS: 99 knots
FS[13:42] IAS: 92 knots
FS[13:42] VS: 15 fpm
FS[13:42] Flaps: Position 4
FS[13:42] GS: 89 knots
FS[13:42] TAS: 91 knots
FS[13:42] IAS: 85 knots
FS[13:42] VS: -418 fpm
FS[13:42] Flaps: Position 5
FS[13:42] GS: 87 knots
FS[13:42] TAS: 90 knots
FS[13:42] IAS: 83 knots
FS[13:42] VS: -472 fpm
FS[13:42] Flaps: Position 6
FS[13:42] GS: 81 knots
FS[13:42] TAS: 85 knots
FS[13:42] IAS: 77 knots
FS[13:42] VS: -412 fpm
FS[13:42] Flaps: Position 7
FS[13:42] GS: 77 knots
FS[13:42] TAS: 80 knots
FS[13:42] IAS: 72 knots
FS[13:42] VS: -433 fpm
FS[13:43] NOTE: ----- LANDED -----
FS[13:43] Landing Rate: -339.87 fpm
FS[13:43] GS: 54 knots
FS[13:43] TAS: 55 knots
FS[13:43] IAS: 47 knots
FS[13:43] VS: -333 fpm
FS[13:43] FOB: 282 lbs
FS[13:43] Heading: 312°
FS[13:43] Pitch: 2°
FS[13:43] Bank: 0°
FS[13:43] Aircraft Weight: 4762.30 lbs
FS[13:43] Nearest Airport: TF11
FS[13:43] Distance: 0.36 miles
FS[13:43] Runway: ???
FS[13:43] Ground Surface: Water
FS[13:43] Ground Condition: Normal
FS[13:43] NOTE: Weather Report
FS[13:43] Wind Heading: 337°
FS[13:43] Wind Speed: 0 knots
FS[13:43] OAT: 21° C
FS[13:43] TAT: 22° C
FS[13:43] Precipitation: None
FS[13:43] Dew Point: 11° C
FS[13:43] Visibility: 62 miles
FS[13:43] METAR: KAEG 131947Z VRB05KT 10SM SCT075CU SCT085 BKN110 30/11 A3024 RMK TCU ALQDSKAEJ 131935Z AUTO 12004KT 10SM BKN110 27/00 A3041 RMK AO2 T02721005KAEL 131935Z AUTO 33005KT 4SM -RA SCT009 BKN028 21/19 A3012 RMK AO2 LTG DSNT SE AND S P0001KAEX 131853Z 00000KT 10SM CLR 33/23 A3007 RMK AO2 SLP184 T03330233 $
FS[13:43] View Mode: Virtual Cockpit
FS[13:43] NOTE: Taxi started
FS[13:43] Flaps: Position 5
FS[13:44] Engine 1: Stopped
FS[13:44] Engine 1: Started
FS[13:45] View Mode: Virtual Cockpit
FS[13:45] Flaps: Position 4
FS[13:45] GS: 66 knots
FS[13:45] TAS: 67 knots
FS[13:45] IAS: 59 knots
FS[13:45] VS: 742 fpm
FS[13:46] Flaps: Position 3
FS[13:46] GS: 73 knots
FS[13:46] TAS: 76 knots
FS[13:46] IAS: 68 knots
FS[13:46] VS: 852 fpm
FS[13:46] Flaps: Position 2
FS[13:46] GS: 73 knots
FS[13:46] TAS: 76 knots
FS[13:46] IAS: 68 knots
FS[13:46] VS: 808 fpm
FS[13:46] Flaps: Position 1
FS[13:46] GS: 77 knots
FS[13:46] TAS: 79 knots
FS[13:46] IAS: 71 knots
FS[13:46] VS: 641 fpm
FS[13:46] Flaps: Position 0
FS[13:46] GS: 79 knots
FS[13:46] TAS: 81 knots
FS[13:46] IAS: 73 knots
FS[13:46] VS: 557 fpm
FS[13:49] Recovery: Flight Saved
FS[13:58] Flaps: Position 1
FS[13:58] GS: 106 knots
FS[13:58] TAS: 102 knots
FS[13:58] IAS: 94 knots
FS[13:58] VS: -332 fpm
FS[13:58] Flaps: Position 2
FS[13:58] GS: 103 knots
FS[13:58] TAS: 99 knots
FS[13:58] IAS: 91 knots
FS[13:58] VS: -400 fpm
FS[13:59] Flaps: Position 3
FS[13:59] GS: 106 knots
FS[13:59] TAS: 103 knots
FS[13:59] IAS: 95 knots
FS[13:59] VS: -935 fpm
FS[13:59] Flaps: Position 4
FS[13:59] GS: 106 knots
FS[13:59] TAS: 102 knots
FS[13:59] IAS: 95 knots
FS[13:59] VS: -829 fpm
FS[13:59] Flaps: Position 5
FS[13:59] GS: 99 knots
FS[13:59] TAS: 96 knots
FS[13:59] IAS: 88 knots
FS[13:59] VS: -592 fpm
FS[13:59] Flaps: Position 6
FS[13:59] GS: 81 knots
FS[13:59] TAS: 80 knots
FS[13:59] IAS: 72 knots
FS[13:59] VS: -1041 fpm
FS[13:59] Flaps: Position 8
FS[13:59] GS: 81 knots
FS[13:59] TAS: 79 knots
FS[13:59] IAS: 71 knots
FS[13:59] VS: -948 fpm
FS[14:01] NOTE: ----- LANDED -----
FS[14:01] Landing Rate: -352.18 fpm
FS[14:01] GS: 60 knots
FS[14:01] TAS: 60 knots
FS[14:01] IAS: 52 knots
FS[14:01] VS: -333 fpm
FS[14:01] FOB: 230 lbs
FS[14:01] Heading: 129°
FS[14:01] Pitch: 1°
FS[14:01] Bank: 0°
FS[14:01] Aircraft Weight: 4710.32 lbs
FS[14:01] Nearest Airport: KAE
FS[14:01] Distance: 0.66 miles
FS[14:01] Runway: ???
FS[14:01] Ground Surface: Water
FS[14:01] Ground Condition: Normal
FS[14:01] NOTE: Weather Report
FS[14:01] Wind Heading: 337°
FS[14:01] Wind Speed: 0 knots
FS[14:01] OAT: 21° C
FS[14:01] TAT: 21° C
FS[14:01] Precipitation: None
FS[14:01] Dew Point: 11° C
FS[14:01] Visibility: 62 miles
FS[14:01] METAR: KAEG 131947Z VRB05KT 10SM SCT075CU SCT085 BKN110 30/11 A3024 RMK TCU ALQDSKAEJ 131935Z AUTO 12004KT 10SM BKN110 27/00 A3041 RMK AO2 T02721005KAEL 131935Z AUTO 33005KT 4SM -RA SCT009 BKN028 21/19 A3012 RMK AO2 LTG DSNT SE AND S P0001KAEX 131853Z 00000KT 10SM CLR 33/23 A3007 RMK AO2 SLP184 T03330233 $
FS[14:01] View Mode: Virtual Cockpit
FS[14:01] Flaps: Position 7
FS[14:01] Flaps: Position 5
FS[14:01] Flaps: Position 4
FS[14:02] Engine 1: Stopped
FS[14:03] Gate: n/a
FS[14:03] NOTE: Flight Completed
FS[14:03] FS Aircraft: DHC2 Beaver N001MM RTMM Floats
FS[14:03] FS Model: DHC2
FS[14:03] FS Type: Silent
FS[14:03] FOB: 229 lbs
FS[14:03] Fuel Used: 86 lbs
FS[14:03] Flight Time: 00:28:28
FS[14:03] Flight Time (Dawn): 00:00:00
FS[14:03] Flight Time (Day): 00:28:28
FS[14:03] Flight Time (Dusk): 00:00:00
FS[14:03] Flight Time (Night): 00:00:00
FS[14:03] Total Landings: 2
FS[14:03] MaxSim Rate: 0x
FS[14:03] Cigar Box - 1.1.4.0
FS[14:03] ----- Flight Closed -----

Route Map